Terminal Aerodrome Forecast
Issued by NWS Louisville, KY

Home | Current Version | Previous Version | Text Only | Print | Product List | Glossary On
Versions: 1 2 3 4 5 6 7 8 9 10 11 12 13 14 15
368
FTUS43 KLMK 201734
TAFSDF
TAF
KSDF 201734Z 2018/2124 22010KT P6SM BKN028 OVC035
     FM202000 21007KT P6SM SCT025 BKN035
     FM210700 16005KT P6SM SCT015 BKN025
     FM211000 18005KT 5SM BR BKN015
     FM211500 18008KT P6SM SCT025 BKN100=

USA.gov is the U.S. government's official web portal to all federal, state and local government web resources and services.